createdAt,value
2018-09-07T00:02:19.878Z,97561.23
2018-09-07T00:04:48.236Z,97555.64
2018-09-07T00:07:16.369Z,97562.98
2018-09-07T00:09:44.582Z,97557.22
2018-09-07T00:12:12.938Z,97565.48
2018-09-07T00:14:42.335Z,97568.13
2018-09-07T00:17:10.621Z,97569.24
2018-09-07T00:19:38.793Z,97568.52
2018-09-07T00:22:07.316Z,97566.31
2018-09-07T00:24:35.803Z,97567.20
2018-09-07T00:27:03.999Z,97571.81
2018-09-07T00:29:32.186Z,97558.85
2018-09-07T00:32:00.812Z,97571.63
2018-09-07T00:34:29.074Z,97566.97
2018-09-07T00:36:57.296Z,97569.49
2018-09-07T00:39:25.544Z,97564.73
2018-09-07T00:41:53.749Z,97566.91
2018-09-07T00:44:22.023Z,97566.59
2018-09-07T00:46:50.213Z,97562.88
2018-09-07T00:49:18.493Z,97562.80
2018-09-07T00:51:46.686Z,97564.94
2018-09-07T00:54:14.981Z,97564.13
2018-09-07T00:56:43.258Z,97554.87
2018-09-07T00:59:11.486Z,97567.94
2018-09-07T01:01:39.745Z,97569.05
2018-09-07T01:04:08.058Z,97568.43
2018-09-07T01:06:36.328Z,97567.74
2018-09-07T01:09:05.533Z,97567.20
2018-09-07T01:11:33.838Z,97571.59
2018-09-07T01:14:02.293Z,97573.78
2018-09-07T01:16:30.645Z,97575.72
2018-09-07T01:18:58.888Z,97570.47
2018-09-07T01:21:27.182Z,97568.91
2018-09-07T01:23:55.365Z,97562.98
2018-09-07T01:26:23.691Z,97575.95
2018-09-07T01:28:51.945Z,97572.91
2018-09-07T01:31:20.213Z,97571.20
2018-09-07T01:33:48.413Z,97578.64
2018-09-07T01:38:41.610Z,97581.55
2018-09-07T01:41:09.789Z,97583.87
2018-09-07T01:43:37.998Z,97584.11
2018-09-07T01:46:06.282Z,97584.22
2018-09-07T01:48:34.561Z,97583.05
2018-09-07T01:51:02.756Z,97578.88
2018-09-07T01:53:30.954Z,97578.02
2018-09-07T01:55:59.230Z,97576.24
2018-09-07T01:58:27.401Z,97573.74
2018-09-07T02:00:55.733Z,97581.95
2018-09-07T02:03:29.054Z,97581.57
2018-09-07T02:05:57.701Z,97575.46
2018-09-07T02:08:27.413Z,97569.66
2018-09-07T02:10:56.615Z,97585.61
2018-09-07T02:13:26.661Z,97581.55
2018-09-07T02:15:54.964Z,97585.67
2018-09-07T02:18:23.749Z,97579.84
2018-09-07T02:20:51.950Z,97575.66
2018-09-07T02:23:20.162Z,97571.00
2018-09-07T02:25:48.417Z,97563.41
2018-09-07T02:28:16.701Z,97583.23
2018-09-07T02:30:45.181Z,97582.52
2018-09-07T02:33:13.388Z,97585.73
2018-09-07T02:35:41.602Z,97593.56
2018-09-07T02:38:09.853Z,97576.56
2018-09-07T02:40:38.054Z,97596.66
2018-09-07T02:43:06.334Z,97590.86
2018-09-07T02:45:34.542Z,97597.90
2018-09-07T02:48:02.740Z,97596.86
2018-09-07T02:50:30.921Z,97606.89
2018-09-07T02:52:59.186Z,97604.42
2018-09-07T02:55:27.373Z,97598.39
2018-09-07T02:57:55.613Z,97600.22
2018-09-07T03:00:23.786Z,97605.77
2018-09-07T03:02:51.995Z,97605.33
2018-09-07T03:05:20.177Z,97607.51
2018-09-07T03:07:48.421Z,97606.58
2018-09-07T03:10:16.734Z,97604.41
2018-09-07T03:12:44.985Z,97601.47
2018-09-07T03:15:13.177Z,97599.81
2018-09-07T03:17:41.440Z,97605.27
2018-09-07T03:20:09.622Z,97595.78
2018-09-07T03:22:37.795Z,97592.63
2018-09-07T03:25:05.994Z,97599.14
2018-09-07T03:27:34.214Z,97601.06
2018-09-07T03:30:02.385Z,97598.91
2018-09-07T03:32:30.581Z,97595.35
2018-09-07T03:34:58.768Z,97599.69
2018-09-07T03:37:27.061Z,97599.44
2018-09-07T03:39:55.238Z,97598.45
2018-09-07T03:42:23.416Z,97597.53
2018-09-07T03:44:51.621Z,97595.47
2018-09-07T03:47:19.901Z,97595.98
2018-09-07T03:49:48.093Z,97593.79
2018-09-07T03:52:16.565Z,97594.31
2018-09-07T03:54:44.753Z,97589.53
2018-09-07T03:57:12.940Z,97588.34
2018-09-07T03:59:41.115Z,97592.02
2018-09-07T04:02:09.302Z,97592.78
2018-09-07T04:04:37.489Z,97602.77
2018-09-07T04:07:05.781Z,97605.55
2018-09-07T04:09:33.986Z,97606.01
2018-09-07T04:12:02.193Z,97610.41
2018-09-07T04:14:30.471Z,97613.19
2018-09-07T04:16:58.754Z,97610.41
2018-09-07T04:19:26.953Z,97615.27
2018-09-07T04:21:55.132Z,97608.96
2018-09-07T04:24:23.314Z,97607.64
2018-09-07T04:26:51.487Z,97616.66
2018-09-07T04:29:19.698Z,97628.09
2018-09-07T04:31:47.976Z,97617.48
2018-09-07T04:34:17.213Z,97623.69
2018-09-07T04:36:45.497Z,97623.11
2018-09-07T04:39:13.689Z,97633.05
2018-09-07T04:41:41.926Z,97633.72
2018-09-07T04:44:10.120Z,97637.28
2018-09-07T04:46:38.333Z,97633.79
2018-09-07T04:49:06.525Z,97641.90
2018-09-07T04:51:34.745Z,97650.17
2018-09-07T04:54:02.927Z,97638.84
2018-09-07T04:56:31.187Z,97650.55
2018-09-07T04:58:59.453Z,97644.68
2018-09-07T05:01:28.772Z,97648.41
2018-09-07T05:03:56.965Z,97635.75
2018-09-07T05:06:25.143Z,97647.44
2018-09-07T05:08:53.309Z,97653.00
2018-09-07T05:11:21.510Z,97654.48
2018-09-07T05:13:49.714Z,97655.20
2018-09-07T05:16:17.902Z,97660.16
2018-09-07T05:18:46.101Z,97667.35
2018-09-07T05:21:14.377Z,97670.28
2018-09-07T05:23:42.565Z,97672.34
2018-09-07T05:26:10.742Z,97670.13
2018-09-07T05:28:38.925Z,97675.23
2018-09-07T05:31:07.091Z,97672.22
2018-09-07T05:33:35.276Z,97676.97
2018-09-07T05:36:03.461Z,97679.48
2018-09-07T05:38:31.657Z,97676.74
2018-09-07T05:40:59.837Z,97675.64
2018-09-07T05:43:28.025Z,97683.27
2018-09-07T05:45:56.214Z,97680.62
2018-09-07T05:48:24.401Z,97678.02
2018-09-07T05:50:52.605Z,97686.72
2018-09-07T05:53:20.774Z,97674.56
2018-09-07T05:55:48.999Z,97680.82
2018-09-07T05:58:17.803Z,97684.69
2018-09-07T06:00:45.995Z,97686.95
2018-09-07T06:03:14.218Z,97688.23
2018-09-07T06:05:42.401Z,97692.72
2018-09-07T06:08:10.638Z,97691.19
2018-09-07T06:10:38.917Z,97684.98
2018-09-07T06:13:07.114Z,97696.63
2018-09-07T06:15:35.321Z,97694.23
2018-09-07T06:18:03.504Z,97698.00
2018-09-07T06:20:31.694Z,97704.61
2018-09-07T06:22:59.874Z,97699.92
2018-09-07T06:25:28.141Z,97707.47
2018-09-07T06:27:56.437Z,97710.19
2018-09-07T06:30:24.582Z,97711.73
2018-09-07T06:32:52.999Z,97706.20
2018-09-07T06:35:21.141Z,97715.79
2018-09-07T06:37:49.321Z,97702.20
2018-09-07T06:40:17.565Z,97728.03
2018-09-07T06:42:45.749Z,97727.48
2018-09-07T06:45:13.953Z,97729.86
2018-09-07T06:47:42.157Z,97736.38
2018-09-07T06:50:10.359Z,97741.08
2018-09-07T06:52:38.601Z,97732.98
2018-09-07T06:55:06.785Z,97738.11
2018-09-07T06:57:34.968Z,97732.11
2018-09-07T07:00:06.924Z,97734.59
2018-09-07T07:02:35.194Z,97733.81
2018-09-07T07:05:03.327Z,97736.22
2018-09-07T07:07:31.517Z,97742.89
2018-09-07T07:09:59.705Z,97746.80
2018-09-07T07:12:27.925Z,97750.63
2018-09-07T07:14:56.173Z,97731.81
2018-09-07T07:17:24.353Z,97743.83
2018-09-07T07:19:52.554Z,97753.39
2018-09-07T07:22:20.876Z,97756.31
2018-09-07T07:24:49.057Z,97753.37
2018-09-07T07:27:17.245Z,97755.42
2018-09-07T07:29:45.425Z,97761.48
2018-09-07T07:32:13.681Z,97759.80
2018-09-07T07:34:41.978Z,97764.30
2018-09-07T07:37:10.408Z,97769.58
2018-09-07T07:39:38.553Z,97768.16
2018-09-07T07:42:07.116Z,97773.44
2018-09-07T07:44:35.302Z,97755.66
2018-09-07T07:47:03.483Z,97775.45
2018-09-07T07:49:31.670Z,97770.27
2018-09-07T07:51:59.865Z,97766.52
2018-09-07T07:54:28.047Z,97769.98
2018-09-07T07:56:56.275Z,97770.04
2018-09-07T07:59:24.491Z,97781.68
2018-09-07T08:01:52.663Z,97784.07
2018-09-07T08:04:20.854Z,97781.51
2018-09-07T08:06:49.033Z,97786.24
2018-09-07T08:09:17.221Z,97781.65
2018-09-07T08:11:45.389Z,97778.59
2018-09-07T08:14:13.563Z,97778.27
2018-09-07T08:16:41.753Z,97783.87
2018-09-07T08:19:09.964Z,97785.14
2018-09-07T08:21:38.130Z,97786.48
2018-09-07T08:24:06.537Z,97794.64
2018-09-07T08:26:34.809Z,97785.28
2018-09-07T08:29:02.962Z,97792.81
2018-09-07T08:31:31.137Z,97799.03
2018-09-07T08:33:59.342Z,97803.45
2018-09-07T08:36:27.548Z,97805.16
2018-09-07T08:38:55.778Z,97811.72
2018-09-07T08:41:24.002Z,97813.94
2018-09-07T08:43:52.197Z,97810.67
2018-09-07T08:46:20.397Z,97818.23
2018-09-07T08:48:48.820Z,97817.31
2018-09-07T08:51:16.950Z,97818.97
2018-09-07T08:53:45.157Z,97821.11
2018-09-07T08:56:13.629Z,97824.59
2018-09-07T08:58:41.863Z,97825.73
2018-09-07T09:01:10.047Z,97823.41
2018-09-07T09:03:38.233Z,97821.01
2018-09-07T09:06:06.428Z,97830.21
2018-09-07T09:08:34.609Z,97825.25
2018-09-07T09:11:02.782Z,97834.63
2018-09-07T09:13:30.961Z,97834.51
2018-09-07T09:15:59.182Z,97834.41
2018-09-07T09:18:27.443Z,97839.81
2018-09-07T09:20:55.642Z,97839.25
2018-09-07T09:23:23.949Z,97842.50
2018-09-07T09:25:52.142Z,97832.39
2018-09-07T09:28:20.329Z,97835.94
2018-09-07T09:30:48.529Z,97839.06
2018-09-07T09:33:16.725Z,97846.11
2018-09-07T09:35:44.995Z,97849.67
2018-09-07T09:38:13.214Z,97845.70
2018-09-07T09:40:41.390Z,97846.95
2018-09-07T09:43:09.687Z,97845.92
2018-09-07T09:45:37.873Z,97852.58
2018-09-07T09:48:06.079Z,97848.62
2018-09-07T09:50:34.380Z,97846.91
2018-09-07T09:53:02.830Z,97852.98
2018-09-07T09:55:30.949Z,97843.87
2018-09-07T09:57:59.169Z,97847.82
2018-09-07T10:01:36.289Z,97843.13
2018-09-07T10:04:08.338Z,97841.06
2018-09-07T10:06:37.229Z,97844.71
2018-09-07T10:09:10.814Z,97848.30
2018-09-07T10:11:39.038Z,97855.67
2018-09-07T10:14:07.394Z,97851.89
2018-09-07T10:16:35.568Z,97851.56
2018-09-07T10:19:03.888Z,97844.17
2018-09-07T10:21:32.033Z,97855.34
2018-09-07T10:24:00.758Z,97851.15
2018-09-07T10:26:28.942Z,97852.99
2018-09-07T10:28:57.131Z,97857.61
2018-09-07T10:31:25.341Z,97855.08
2018-09-07T10:33:53.523Z,97850.83
2018-09-07T10:36:21.697Z,97849.30
2018-09-07T10:38:49.892Z,97852.37
2018-09-07T10:41:18.089Z,97850.31
2018-09-07T10:43:46.270Z,97839.84
2018-09-07T10:46:14.487Z,97843.02
2018-09-07T10:48:42.705Z,97842.14
2018-09-07T10:51:10.894Z,97843.23
2018-09-07T10:53:39.095Z,97845.13
2018-09-07T10:56:07.282Z,97839.56
2018-09-07T10:58:35.506Z,97842.88
2018-09-07T11:01:03.706Z,97849.88
2018-09-07T11:03:31.921Z,97845.44
2018-09-07T11:06:00.126Z,97835.31
2018-09-07T11:08:28.349Z,97845.59
2018-09-07T11:10:56.531Z,97844.63
2018-09-07T11:13:24.713Z,97852.71
2018-09-07T11:15:52.921Z,97845.48
2018-09-07T11:18:21.117Z,97847.59
2018-09-07T11:20:49.364Z,97856.09
2018-09-07T11:23:17.505Z,97854.16
2018-09-07T11:25:45.701Z,97850.42
2018-09-07T11:28:13.910Z,97848.64
2018-09-07T11:30:42.089Z,97860.72
2018-09-07T11:33:10.274Z,97853.25
2018-09-07T11:35:38.529Z,97851.55
2018-09-07T11:38:06.653Z,97846.53
2018-09-07T11:40:34.900Z,97840.12
2018-09-07T11:43:03.109Z,97859.66
2018-09-07T11:45:34.180Z,97856.77
2018-09-07T11:48:02.366Z,97854.25
2018-09-07T11:50:30.565Z,97861.51
2018-09-07T11:52:58.757Z,97855.11
2018-09-07T11:55:26.965Z,97860.70
2018-09-07T11:57:56.204Z,97858.44
2018-09-07T12:00:24.353Z,97862.25
2018-09-07T12:02:52.589Z,97864.59
2018-09-07T12:05:20.775Z,97868.02
2018-09-07T12:07:49.097Z,97873.05
2018-09-07T12:10:17.293Z,97874.34
2018-09-07T12:12:45.684Z,97874.37
2018-09-07T12:15:13.809Z,97872.98
2018-09-07T12:17:41.994Z,97875.00
2018-09-07T12:20:10.194Z,97876.23
2018-09-07T12:22:38.401Z,97878.69
2018-09-07T12:25:06.653Z,97874.86
2018-09-07T12:27:35.180Z,97875.96
2018-09-07T12:30:03.405Z,97888.16
2018-09-07T12:32:31.666Z,97887.94
2018-09-07T12:34:59.921Z,97885.75
2018-09-07T12:37:28.106Z,97889.08
2018-09-07T12:39:56.291Z,97889.61
2018-09-07T12:42:24.493Z,97894.24
2018-09-07T12:44:52.702Z,97894.66
2018-09-07T12:47:20.913Z,97888.53
2018-09-07T12:49:49.465Z,97884.66
2018-09-07T12:52:18.941Z,97895.69
2018-09-07T12:54:47.133Z,97890.66
2018-09-07T12:57:15.337Z,97894.55
2018-09-07T12:59:43.572Z,97886.09
2018-09-07T13:02:11.796Z,97888.75
2018-09-07T13:04:39.994Z,97887.91
2018-09-07T13:07:08.398Z,97890.42
2018-09-07T13:09:36.605Z,97892.32
2018-09-07T13:12:04.785Z,97892.36
2018-09-07T13:14:32.974Z,97885.85
2018-09-07T13:17:01.169Z,97886.34
2018-09-07T13:19:29.365Z,97884.52
2018-09-07T13:21:57.576Z,97884.48
2018-09-07T13:24:25.771Z,97875.54
2018-09-07T13:26:53.979Z,97872.48
2018-09-07T13:29:22.214Z,97879.91
2018-09-07T13:31:50.389Z,97884.41
2018-09-07T13:34:18.613Z,97878.35
2018-09-07T13:36:46.786Z,97888.08
2018-09-07T13:39:14.978Z,97878.62
2018-09-07T13:41:43.153Z,97880.80
2018-09-07T13:44:11.368Z,97885.23
2018-09-07T13:46:39.537Z,97884.27
2018-09-07T13:49:07.725Z,97883.61
2018-09-07T13:51:35.913Z,97878.02
2018-09-07T13:54:04.109Z,97882.87
2018-09-07T13:56:32.288Z,97887.06
2018-09-07T13:59:00.471Z,97890.53
2018-09-07T14:01:28.658Z,97891.95
2018-09-07T14:03:56.834Z,97889.53
2018-09-07T14:06:25.016Z,97892.58
2018-09-07T14:08:53.206Z,97887.57
2018-09-07T14:11:21.382Z,97884.36
2018-09-07T14:13:49.606Z,97885.77
2018-09-07T14:16:18.061Z,97881.70
2018-09-07T14:18:46.177Z,97886.35
2018-09-07T14:21:14.466Z,97890.77
2018-09-07T14:23:42.758Z,97889.16
2018-09-07T14:26:16.201Z,97884.53
2018-09-07T14:28:44.458Z,97890.56
2018-09-07T14:31:12.630Z,97889.61
2018-09-07T14:33:40.830Z,97889.39
2018-09-07T14:36:09.048Z,97891.61
2018-09-07T14:38:37.230Z,97886.40
2018-09-07T14:41:05.500Z,97887.02
2018-09-07T14:43:33.821Z,97894.48
2018-09-07T14:46:02.051Z,97898.28
2018-09-07T14:48:30.472Z,97891.80
2018-09-07T14:50:58.809Z,97898.03
2018-09-07T14:53:26.993Z,97904.23
2018-09-07T14:55:55.512Z,97891.78
2018-09-07T14:58:23.941Z,97895.18
2018-09-07T15:00:52.205Z,97902.99
2018-09-07T15:03:20.399Z,97896.22
2018-09-07T15:05:48.585Z,97900.83
2018-09-07T15:08:16.783Z,97902.84
2018-09-07T15:10:45.237Z,97908.23
2018-09-07T15:13:13.426Z,97913.80
2018-09-07T15:15:41.657Z,97903.92
2018-09-07T15:18:09.969Z,97912.80
2018-09-07T15:20:38.147Z,97914.72
2018-09-07T15:23:06.329Z,97920.48
2018-09-07T15:25:34.513Z,97919.20
2018-09-07T15:28:02.771Z,97925.30
2018-09-07T15:30:30.962Z,97922.90
2018-09-07T15:32:59.281Z,97921.34
2018-09-07T15:35:27.545Z,97920.34
2018-09-07T15:37:55.840Z,97924.56
2018-09-07T15:40:24.128Z,97919.16
2018-09-07T15:42:52.409Z,97920.34
2018-09-07T15:45:20.606Z,97928.33
2018-09-07T15:47:48.897Z,97928.11
2018-09-07T15:50:17.094Z,97930.72
2018-09-07T15:52:45.265Z,97929.86
2018-09-07T15:55:13.573Z,97929.86
2018-09-07T15:57:41.739Z,97927.05
2018-09-07T16:00:09.945Z,97931.42
2018-09-07T16:02:38.114Z,97933.38
2018-09-07T16:05:06.665Z,97934.09
2018-09-07T16:07:34.869Z,97939.03
2018-09-07T16:10:03.059Z,97945.11
2018-09-07T16:12:31.254Z,97946.06
2018-09-07T16:14:59.429Z,97944.62
2018-09-07T16:17:27.621Z,97951.31
2018-09-07T16:19:55.817Z,97957.50
2018-09-07T16:22:23.985Z,97958.27
2018-09-07T16:24:52.162Z,97960.91
2018-09-07T16:27:20.358Z,97975.78
2018-09-07T16:29:48.537Z,97983.08
2018-09-07T16:32:16.733Z,97971.16
2018-09-07T16:34:44.911Z,97977.58
2018-09-07T16:37:13.075Z,97986.34
2018-09-07T16:39:41.392Z,97991.64
2018-09-07T16:42:09.636Z,97984.15
2018-09-07T16:44:37.786Z,97984.47
2018-09-07T16:47:06.007Z,97993.02
2018-09-07T16:49:34.241Z,97996.63
2018-09-07T16:52:02.393Z,97994.97
2018-09-07T16:54:30.650Z,97997.99
2018-09-07T16:56:58.884Z,97999.24
2018-09-07T16:59:27.164Z,98001.03
2018-09-07T17:01:55.317Z,97997.22
2018-09-07T17:04:23.513Z,98004.33
2018-09-07T17:06:51.801Z,98004.41
2018-09-07T17:09:20.057Z,98005.66
2018-09-07T17:11:48.249Z,98009.58
2018-09-07T17:14:16.436Z,98015.14
2018-09-07T17:16:44.618Z,98021.36
2018-09-07T17:19:12.808Z,98013.98
2018-09-07T17:21:41.093Z,98022.77
2018-09-07T17:24:09.317Z,98013.09
2018-09-07T17:26:38.084Z,98019.89
2018-09-07T17:29:06.360Z,98027.31
2018-09-07T17:31:34.559Z,98026.34
2018-09-07T17:34:02.754Z,98027.87
2018-09-07T17:36:30.940Z,98030.44
2018-09-07T17:38:59.101Z,98034.48
2018-09-07T17:41:27.301Z,98033.08
2018-09-07T17:43:55.506Z,98032.59
2018-09-07T17:46:23.701Z,98039.73
2018-09-07T17:48:51.873Z,98039.68
2018-09-07T17:51:20.049Z,98048.86
2018-09-07T17:53:48.221Z,98051.56
2018-09-07T17:56:16.386Z,98055.12
2018-09-07T17:58:44.623Z,98057.09
2018-09-07T18:01:12.790Z,98061.43
2018-09-07T18:03:40.959Z,98064.72
2018-09-07T18:06:14.297Z,98064.28
2018-09-07T18:08:42.582Z,98066.28
2018-09-07T18:11:10.889Z,98075.61
2018-09-07T18:13:39.049Z,98075.09
2018-09-07T18:16:07.237Z,98071.44
2018-09-07T18:18:35.418Z,98065.68
2018-09-07T18:21:03.585Z,98082.93
2018-09-07T18:23:31.762Z,98080.89
2018-09-07T18:25:59.982Z,98084.19
2018-09-07T18:28:28.165Z,98097.68
2018-09-07T18:30:56.341Z,98100.22
2018-09-07T18:33:24.538Z,98102.41
2018-09-07T18:35:53.147Z,98108.12
2018-09-07T18:38:20.909Z,98106.89
2018-09-07T18:40:49.117Z,98111.07
2018-09-07T18:43:17.407Z,98105.23
2018-09-07T18:45:45.588Z,98116.97
2018-09-07T18:48:14.269Z,98119.48
2018-09-07T18:50:42.478Z,98123.00
2018-09-07T18:53:10.754Z,98118.91
2018-09-07T18:55:39.976Z,98122.83
2018-09-07T18:58:08.150Z,98126.32
2018-09-07T19:00:36.326Z,98122.39
2018-09-07T19:03:04.513Z,98128.81
2018-09-07T19:05:32.709Z,98131.48
2018-09-07T19:08:00.990Z,98139.05
2018-09-07T19:10:29.289Z,98135.45
2018-09-07T19:12:57.590Z,98136.48
2018-09-07T19:15:25.963Z,98137.91
2018-09-07T19:17:54.228Z,98149.05
2018-09-07T19:20:22.490Z,98152.58
2018-09-07T19:22:50.965Z,98151.31
2018-09-07T19:25:19.275Z,98155.57
2018-09-07T19:27:47.545Z,98144.80
2018-09-07T19:30:15.805Z,98148.20
2018-09-07T19:32:44.145Z,98153.16
2018-09-07T19:35:13.032Z,98146.64
2018-09-07T19:37:41.210Z,98148.40
2018-09-07T19:40:09.567Z,98150.08
2018-09-07T19:42:37.749Z,98147.91
2018-09-07T19:45:05.958Z,98150.33
2018-09-07T19:47:34.238Z,98151.03
2018-09-07T19:50:02.450Z,98152.75
2018-09-07T19:52:30.706Z,98154.42
2018-09-07T19:54:58.886Z,98156.55
2018-09-07T19:57:27.158Z,98153.88
2018-09-07T19:59:55.507Z,98161.18
2018-09-07T20:02:23.761Z,98157.52
2018-09-07T20:04:52.013Z,98160.26
2018-09-07T20:07:20.422Z,98165.05
2018-09-07T20:09:48.590Z,98165.08
2018-09-07T20:12:16.975Z,98162.26
2018-09-07T20:14:45.210Z,98170.97
2018-09-07T20:17:13.413Z,98171.75
2018-09-07T20:19:41.591Z,98173.30
2018-09-07T20:22:11.542Z,98177.27
2018-09-07T20:24:39.981Z,98179.61
2018-09-07T20:27:08.254Z,98188.10
2018-09-07T20:29:36.588Z,98189.61
2018-09-07T20:32:04.885Z,98175.57
2018-09-07T20:34:33.154Z,98185.68
2018-09-07T20:37:01.374Z,98191.09
2018-09-07T20:39:29.634Z,98188.14
2018-09-07T20:41:57.941Z,98191.05
2018-09-07T20:44:26.134Z,98194.77
2018-09-07T20:46:54.389Z,98189.67
2018-09-07T20:49:22.685Z,98202.77
2018-09-07T20:51:50.885Z,98204.75
2018-09-07T20:54:19.164Z,98206.11
2018-09-07T20:56:47.583Z,98193.28
2018-09-07T20:59:15.839Z,98215.88
2018-09-07T21:01:46.659Z,98213.78
2018-09-07T21:04:14.869Z,98222.36
2018-09-07T21:06:43.045Z,98221.41
2018-09-07T21:09:11.269Z,98217.63
2018-09-07T21:11:39.523Z,98220.87
2018-09-07T21:14:07.865Z,98220.41
2018-09-07T21:16:36.354Z,98216.66
2018-09-07T21:19:04.875Z,98213.07
2018-09-07T21:21:33.085Z,98221.80
2018-09-07T21:24:01.493Z,98219.44
2018-09-07T21:26:29.957Z,98222.00
2018-09-07T21:28:58.161Z,98225.56
2018-09-07T21:31:26.445Z,98228.09
2018-09-07T21:33:54.747Z,98230.09
2018-09-07T21:36:23.029Z,98234.27
2018-09-07T21:38:51.748Z,98238.33
2018-09-07T21:41:20.022Z,98238.01
2018-09-07T21:43:49.227Z,98239.39
2018-09-07T21:46:17.501Z,98237.73
2018-09-07T21:48:45.728Z,98244.34
2018-09-07T21:51:13.987Z,98249.33
2018-09-07T21:53:42.173Z,98251.53
2018-09-07T21:56:10.522Z,98260.20
2018-09-07T21:58:38.765Z,98262.30
2018-09-07T22:01:11.098Z,98261.81
2018-09-07T22:03:39.374Z,98269.08
2018-09-07T22:06:09.442Z,98270.23
2018-09-07T22:08:38.461Z,98276.59
2018-09-07T22:11:07.259Z,98279.92
2018-09-07T22:13:35.410Z,98279.03
2018-09-07T22:16:03.630Z,98286.33
2018-09-07T22:18:31.869Z,98274.75
2018-09-07T22:21:00.040Z,98275.47
2018-09-07T22:23:28.295Z,98275.80
2018-09-07T22:25:56.485Z,98278.72
2018-09-07T22:28:24.817Z,98282.86
2018-09-07T22:30:53.385Z,98283.81
2018-09-07T22:33:21.945Z,98285.55
2018-09-07T22:35:50.345Z,98285.64
2018-09-07T22:38:18.530Z,98285.87
2018-09-07T22:40:46.709Z,98293.99
2018-09-07T22:43:15.301Z,98296.28
2018-09-07T22:45:44.118Z,98296.28
2018-09-07T22:48:12.331Z,98303.90
2018-09-07T22:50:40.605Z,98308.83
2018-09-07T22:53:08.878Z,98314.01
2018-09-07T22:55:37.137Z,98315.46
2018-09-07T22:58:05.385Z,98308.43
2018-09-07T23:00:33.693Z,98312.47
2018-09-07T23:03:01.938Z,98311.17
2018-09-07T23:05:30.142Z,98317.41
2018-09-07T23:07:58.325Z,98307.48
2018-09-07T23:10:26.613Z,98312.97
2018-09-07T23:12:54.793Z,98312.18
2018-09-07T23:15:22.982Z,98313.31
2018-09-07T23:17:51.298Z,98319.08
2018-09-07T23:20:19.413Z,98314.23
2018-09-07T23:22:47.607Z,98321.20
2018-09-07T23:25:15.761Z,98322.02
2018-09-07T23:27:43.952Z,98322.97
2018-09-07T23:30:12.494Z,98323.25
2018-09-07T23:32:40.686Z,98327.03
2018-09-07T23:35:08.893Z,98333.39
2018-09-07T23:37:37.642Z,98330.19
2018-09-07T23:40:05.890Z,98333.64
2018-09-07T23:42:34.150Z,98335.11
2018-09-07T23:45:02.349Z,98331.83
2018-09-07T23:47:30.625Z,98329.91
2018-09-07T23:49:58.817Z,98330.82
2018-09-07T23:52:27.002Z,98335.77
2018-09-07T23:54:55.170Z,98327.28
2018-09-07T23:57:23.356Z,98331.22
2018-09-07T23:59:51.616Z,98330.69
